KNTU/NTU METAR and TAF weather

Enter ICAO airport designator
Station Type Date Time Source
KNTU METAR 2018/12/10 12:56 UTC NOAA

KNTU 101256Z 36012G19KT 10SM -RA FEW015 OVC055 02/01 A3000 RMK AO2 SLP161 P0003 T00220011


Station Type Date Time Source
KNTU Decoded METAR 2018/12/10 12:56 UTC NOAA

OCEANA, NAVAL AIR STATION, VA, United States (KNTU) 36-49N 076-02W 6M
Dec 10, 2018 - 07:56 AM EST / 2018.12.10 1256 UTC
Wind: from the N (360 degrees) at 14 MPH (12 KT) gusting to 22 MPH (19 KT):0
Visibility: 10 mile(s):0
Sky conditions: overcast
Weather: light rain
Precipitation last hour: 0.03 inches
Temperature: 36.0 F (2.2 C)
Dew Point: 34.0 F (1.1 C)
Relative Humidity: 92%
Pressure (altimeter): 30 in. Hg (1015 hPa)
ob: KNTU 101256Z 36012G19KT 10SM -RA FEW015 OVC055 02/01 A3000 RMK AO2 SLP161 P0003 T00220011
cycle: 13

Station Type Date Time Source
KNTU TAF 2018/12/10 07:06 UTC NOAA

TAF KNTU 1007/1107 02020G32KT 9999 VCSH BKN015 OVC035 510009 QNH2990INS
TEMPO 1007/1013 6000 -SHRA BKN006 OVC020
BECMG 1014/1016 02015G20KT 9999 NSW SCT030 BKN120 500000 QNH2996INS
BECMG 1023/1101 01013G18KT 9999 SCT020 BKN100 QNH3003INS T03/1012Z T07/1020Z FN00182


Example: see airport list